Apiacas, Brazil
Current Conditions -  °F | °C
As of 6:00 PM on Monday 24 Nov 2014 (Local Time) from SBAT Reporting Station
Rain Showers Rain Showers  
Wind Chill: 86°   Ceiling: Unl
Heat Index: 93°   Visibility: 6mi
Dew Point: 73°   Wind: 8mph
Humidity: 66%   Direction: 90°E
Pressure: 29.77"   Gusts: NA
Location:  9.56°S, 57.35°W
Report Text: SBAT 242100Z 09007KT 9999 VCSH FEW035TCU SCT080 30/23 Q1008
Loading
Personal Weather Stations






























Interactive Weather Map New forecast layout! Learn more

10-Day Weather Forecast

Advertisements
Track Severe Weather on mobile